Grass Lake, MI (49240)

2:58 AM EST on January 30, 2015 (GMT -0500)
Stull Rd Grup | Change Station
CLOSE
Current Station
Personal Weather Station
Location: Grass Lake, MI
Elevation: 997 ft
Nearby Weather Stations

Elev 997 ft 42.29 °N, 84.26 °W | Updated 9 minutes ago

Overcast
Overcast
21.6 °F
Feels Like 22 °F
N
1.1
Wind Variable Wind from SSE

Today
High -- | Low -- °F
--% Chance of Precip.
Yesterday
High -- | Low -- °F
Precip. -- in
7:52 AM 5:48 PM
Waxing Gibbous, 81% visible
Pressure 30.21 in
Visibility 9.0 miles
Clouds Overcast 3000 ft
Windchill 22 °F
Dew Point 17 °F
Humidity 81%
Rainfall 0.00 in
Snow Depth Not available.
UV 0 out of 12
Pollen .10 out of 12
Air Quality Not available.
Flu Activity Not available.
METAR KJXN 300656Z 32009G18KT 9SM OVC030 M06/M11 A3017 RMK AO2 PK WND 35027/0606 SLP230 T10561106

More Conditions Fewer Conditions

Pressure 30.21 in
Visibility 9.0 miles
Clouds Overcast 3000 ft
Windchill 22 °F
Dew Point 17 °F
Humidity 81%
Rainfall 0.00 in
Snow Depth Not available.
UV 0 out of 12
Pollen .10 out of 12
Air Quality Not available.
Flu Activity Not available.
METAR KJXN 300656Z 32009G18KT 9SM OVC030 M06/M11 A3017 RMK AO2 PK WND 35027/0606 SLP230 T10561106

More Conditions Fewer Conditions

10-Day Weather Forecast

Almanac

Astronomy

Jan. 30, 2015 Rise Set
Actual Time
Civil Twilight
Nautical Twilight
Astronomical Twilight
Moon
Length of Visible Light
Length of Day
Tomorrow will be .
, % of the Moon is Illuminated

Today's Extremes

State Highs State Lows

Community

WunderPhotos

Upload Photos

1,791,726 photos uploaded!

WunderBlogs® & News

Nearby

Air Quality

  Air Quality AQ Index Pollutant
Not available.

Snow Depth

Station Depth Elevation

Earthquake Activity

City Distance Mag. Time & Date
Minimum magnitude displayed is 2.5.

Coastal Water Temperatures

Place Temperature

Nearby Weather Stations